sensor_id;sensor_type;location;lat;lon;timestamp;P1;durP1;ratioP1;P2;durP2;ratioP2
80322;SDS011;69636;52.372;13.610;2023-07-28T00:02:20;5.40;;;3.90;;
80322;SDS011;69636;52.372;13.610;2023-07-28T00:04:48;4.95;;;3.65;;
80322;SDS011;69636;52.372;13.610;2023-07-28T00:07:17;4.78;;;3.45;;
80322;SDS011;69636;52.372;13.610;2023-07-28T00:09:45;6.47;;;4.18;;
80322;SDS011;69636;52.372;13.610;2023-07-28T00:12:12;6.40;;;3.83;;
80322;SDS011;69636;52.372;13.610;2023-07-28T00:14:39;3.85;;;3.13;;
80322;SDS011;69636;52.372;13.610;2023-07-28T00:17:07;4.85;;;3.65;;
80322;SDS011;69636;52.372;13.610;2023-07-28T00:19:34;4.40;;;3.38;;
80322;SDS011;69636;52.372;13.610;2023-07-28T00:22:01;5.28;;;3.72;;
80322;SDS011;69636;52.372;13.610;2023-07-28T00:24:30;4.75;;;3.30;;
80322;SDS011;69636;52.372;13.610;2023-07-28T00:26:57;4.55;;;3.53;;
80322;SDS011;69636;52.372;13.610;2023-07-28T00:29:24;4.25;;;3.33;;
80322;SDS011;69636;52.372;13.610;2023-07-28T00:31:52;4.18;;;3.05;;
80322;SDS011;69636;52.372;13.610;2023-07-28T00:34:20;3.47;;;2.00;;
80322;SDS011;69636;52.372;13.610;2023-07-28T00:36:47;4.45;;;3.25;;
80322;SDS011;69636;52.372;13.610;2023-07-28T00:39:14;5.45;;;3.40;;
80322;SDS011;69636;52.372;13.610;2023-07-28T00:41:43;4.60;;;3.03;;
80322;SDS011;69636;52.372;13.610;2023-07-28T00:44:10;4.03;;;2.65;;
80322;SDS011;69636;52.372;13.610;2023-07-28T00:46:38;4.32;;;2.75;;
80322;SDS011;69636;52.372;13.610;2023-07-28T00:49:05;4.82;;;3.45;;
80322;SDS011;69636;52.372;13.610;2023-07-28T00:51:32;4.80;;;3.00;;
80322;SDS011;69636;52.372;13.610;2023-07-28T00:54:00;4.70;;;2.97;;
80322;SDS011;69636;52.372;13.610;2023-07-28T00:56:28;4.53;;;3.15;;
80322;SDS011;69636;52.372;13.610;2023-07-28T00:58:57;4.63;;;2.60;;
80322;SDS011;69636;52.372;13.610;2023-07-28T01:01:24;4.82;;;2.85;;
80322;SDS011;69636;52.372;13.610;2023-07-28T01:03:51;5.03;;;3.25;;
80322;SDS011;69636;52.372;13.610;2023-07-28T01:06:20;5.65;;;3.00;;
80322;SDS011;69636;52.372;13.610;2023-07-28T01:09:04;3.97;;;2.60;;
80322;SDS011;69636;52.372;13.610;2023-07-28T01:11:36;4.40;;;2.67;;
80322;SDS011;69636;52.372;13.610;2023-07-28T01:14:05;4.35;;;3.33;;
80322;SDS011;69636;52.372;13.610;2023-07-28T01:16:32;4.90;;;3.08;;
80322;SDS011;69636;52.372;13.610;2023-07-28T01:19:00;5.30;;;2.80;;
80322;SDS011;69636;52.372;13.610;2023-07-28T01:21:28;4.53;;;3.00;;
80322;SDS011;69636;52.372;13.610;2023-07-28T01:23:59;4.82;;;2.92;;
80322;SDS011;69636;52.372;13.610;2023-07-28T01:26:34;4.13;;;2.42;;
80322;SDS011;69636;52.372;13.610;2023-07-28T01:29:02;4.38;;;2.88;;
80322;SDS011;69636;52.372;13.610;2023-07-28T01:31:31;4.50;;;3.03;;
80322;SDS011;69636;52.372;13.610;2023-07-28T01:33:59;3.70;;;2.90;;
80322;SDS011;69636;52.372;13.610;2023-07-28T01:36:26;4.20;;;2.80;;
80322;SDS011;69636;52.372;13.610;2023-07-28T01:38:53;5.78;;;2.90;;
80322;SDS011;69636;52.372;13.610;2023-07-28T01:41:20;4.78;;;3.00;;
80322;SDS011;69636;52.372;13.610;2023-07-28T01:43:49;4.15;;;2.97;;
80322;SDS011;69636;52.372;13.610;2023-07-28T01:46:16;4.68;;;2.95;;
80322;SDS011;69636;52.372;13.610;2023-07-28T01:48:44;5.50;;;2.80;;
80322;SDS011;69636;52.372;13.610;2023-07-28T01:51:11;5.60;;;3.17;;
80322;SDS011;69636;52.372;13.610;2023-07-28T01:53:38;3.72;;;3.13;;
80322;SDS011;69636;52.372;13.610;2023-07-28T01:56:06;5.35;;;3.13;;
80322;SDS011;69636;52.372;13.610;2023-07-28T01:58:33;5.07;;;2.55;;
80322;SDS011;69636;52.372;13.610;2023-07-28T02:01:02;5.40;;;3.10;;
80322;SDS011;69636;52.372;13.610;2023-07-28T02:03:29;6.68;;;3.33;;
80322;SDS011;69636;52.372;13.610;2023-07-28T02:05:56;7.65;;;4.82;;
80322;SDS011;69636;52.372;13.610;2023-07-28T02:08:23;4.63;;;3.10;;
80322;SDS011;69636;52.372;13.610;2023-07-28T02:10:52;5.82;;;3.53;;
80322;SDS011;69636;52.372;13.610;2023-07-28T02:13:20;4.88;;;3.17;;
80322;SDS011;69636;52.372;13.610;2023-07-28T02:15:47;6.70;;;3.17;;
80322;SDS011;69636;52.372;13.610;2023-07-28T02:18:16;5.53;;;2.85;;
80322;SDS011;69636;52.372;13.610;2023-07-28T02:20:43;5.05;;;2.85;;
80322;SDS011;69636;52.372;13.610;2023-07-28T02:23:10;5.57;;;2.92;;
80322;SDS011;69636;52.372;13.610;2023-07-28T02:25:39;6.72;;;3.17;;
80322;SDS011;69636;52.372;13.610;2023-07-28T02:28:07;4.68;;;2.67;;
80322;SDS011;69636;52.372;13.610;2023-07-28T02:30:35;6.45;;;2.78;;
80322;SDS011;69636;52.372;13.610;2023-07-28T02:33:02;5.70;;;3.25;;
80322;SDS011;69636;52.372;13.610;2023-07-28T02:35:31;5.30;;;4.75;;
80322;SDS011;69636;52.372;13.610;2023-07-28T02:37:59;5.63;;;2.83;;
80322;SDS011;69636;52.372;13.610;2023-07-28T02:40:26;4.55;;;2.67;;
80322;SDS011;69636;52.372;13.610;2023-07-28T02:42:53;4.55;;;3.25;;
80322;SDS011;69636;52.372;13.610;2023-07-28T02:45:20;4.57;;;2.95;;
80322;SDS011;69636;52.372;13.610;2023-07-28T02:47:48;5.32;;;3.00;;
80322;SDS011;69636;52.372;13.610;2023-07-28T02:50:15;5.57;;;2.88;;
80322;SDS011;69636;52.372;13.610;2023-07-28T02:52:44;5.50;;;3.35;;
80322;SDS011;69636;52.372;13.610;2023-07-28T02:55:11;4.93;;;2.97;;
80322;SDS011;69636;52.372;13.610;2023-07-28T02:57:38;4.93;;;2.83;;
80322;SDS011;69636;52.372;13.610;2023-07-28T03:00:07;5.80;;;3.47;;
80322;SDS011;69636;52.372;13.610;2023-07-28T03:02:35;5.32;;;2.63;;
80322;SDS011;69636;52.372;13.610;2023-07-28T03:05:02;4.75;;;3.20;;
80322;SDS011;69636;52.372;13.610;2023-07-28T03:07:29;4.57;;;2.53;;
80322;SDS011;69636;52.372;13.610;2023-07-28T03:09:58;6.07;;;3.35;;
80322;SDS011;69636;52.372;13.610;2023-07-28T03:12:25;5.82;;;2.85;;
80322;SDS011;69636;52.372;13.610;2023-07-28T03:14:53;5.50;;;3.35;;
80322;SDS011;69636;52.372;13.610;2023-07-28T03:17:20;5.43;;;2.83;;
80322;SDS011;69636;52.372;13.610;2023-07-28T03:19:48;5.15;;;2.40;;
80322;SDS011;69636;52.372;13.610;2023-07-28T03:22:15;5.57;;;3.55;;
80322;SDS011;69636;52.372;13.610;2023-07-28T03:24:42;5.65;;;4.38;;
80322;SDS011;69636;52.372;13.610;2023-07-28T03:27:11;7.20;;;3.75;;
80322;SDS011;69636;52.372;13.610;2023-07-28T03:29:38;6.38;;;3.38;;
80322;SDS011;69636;52.372;13.610;2023-07-28T03:32:06;6.53;;;3.22;;
80322;SDS011;69636;52.372;13.610;2023-07-28T03:34:33;5.63;;;3.63;;
80322;SDS011;69636;52.372;13.610;2023-07-28T03:37:00;7.07;;;4.13;;
80322;SDS011;69636;52.372;13.610;2023-07-28T03:39:28;8.00;;;3.72;;
80322;SDS011;69636;52.372;13.610;2023-07-28T03:41:55;5.93;;;3.63;;
80322;SDS011;69636;52.372;13.610;2023-07-28T03:44:24;6.78;;;3.95;;
80322;SDS011;69636;52.372;13.610;2023-07-28T03:46:51;5.78;;;3.50;;
80322;SDS011;69636;52.372;13.610;2023-07-28T03:49:18;6.38;;;3.45;;
80322;SDS011;69636;52.372;13.610;2023-07-28T03:51:46;5.88;;;3.53;;
80322;SDS011;69636;52.372;13.610;2023-07-28T03:54:13;5.68;;;3.13;;
80322;SDS011;69636;52.372;13.610;2023-07-28T03:56:40;5.72;;;2.72;;
80322;SDS011;69636;52.372;13.610;2023-07-28T03:59:08;6.95;;;3.03;;
80322;SDS011;69636;52.372;13.610;2023-07-28T04:01:36;5.75;;;2.90;;
80322;SDS011;69636;52.372;13.610;2023-07-28T04:04:04;5.20;;;2.35;;
80322;SDS011;69636;52.372;13.610;2023-07-28T04:06:41;6.82;;;2.72;;
80322;SDS011;69636;52.372;13.610;2023-07-28T04:09:09;5.45;;;3.45;;
80322;SDS011;69636;52.372;13.610;2023-07-28T04:11:36;5.28;;;2.70;;
80322;SDS011;69636;52.372;13.610;2023-07-28T04:14:04;6.72;;;4.35;;
80322;SDS011;69636;52.372;13.610;2023-07-28T04:16:32;6.43;;;3.00;;
80322;SDS011;69636;52.372;13.610;2023-07-28T04:19:01;6.88;;;3.20;;
80322;SDS011;69636;52.372;13.610;2023-07-28T04:21:28;5.75;;;2.85;;
80322;SDS011;69636;52.372;13.610;2023-07-28T04:23:56;6.22;;;2.95;;
80322;SDS011;69636;52.372;13.610;2023-07-28T04:26:23;7.15;;;3.00;;
80322;SDS011;69636;52.372;13.610;2023-07-28T04:28:51;5.45;;;2.42;;
80322;SDS011;69636;52.372;13.610;2023-07-28T04:31:19;5.25;;;3.45;;
80322;SDS011;69636;52.372;13.610;2023-07-28T04:33:46;6.30;;;3.30;;
80322;SDS011;69636;52.372;13.610;2023-07-28T04:36:15;6.13;;;3.28;;
80322;SDS011;69636;52.372;13.610;2023-07-28T04:38:42;7.00;;;3.30;;
80322;SDS011;69636;52.372;13.610;2023-07-28T04:41:09;6.18;;;3.78;;
80322;SDS011;69636;52.372;13.610;2023-07-28T04:43:37;6.50;;;3.95;;
80322;SDS011;69636;52.372;13.610;2023-07-28T04:46:04;6.03;;;3.40;;
80322;SDS011;69636;52.372;13.610;2023-07-28T04:48:31;8.13;;;3.90;;
80322;SDS011;69636;52.372;13.610;2023-07-28T04:50:58;7.78;;;4.60;;
80322;SDS011;69636;52.372;13.610;2023-07-28T04:53:27;6.93;;;4.28;;
80322;SDS011;69636;52.372;13.610;2023-07-28T04:55:54;6.53;;;3.47;;
80322;SDS011;69636;52.372;13.610;2023-07-28T04:58:22;8.35;;;3.97;;
80322;SDS011;69636;52.372;13.610;2023-07-28T05:00:49;5.80;;;2.53;;
80322;SDS011;69636;52.372;13.610;2023-07-28T05:03:16;9.75;;;3.78;;
80322;SDS011;69636;52.372;13.610;2023-07-28T05:05:43;5.82;;;3.03;;
80322;SDS011;69636;52.372;13.610;2023-07-28T05:08:11;12.50;;;5.32;;
80322;SDS011;69636;52.372;13.610;2023-07-28T05:10:40;11.73;;;4.70;;
80322;SDS011;69636;52.372;13.610;2023-07-28T05:13:08;6.65;;;3.28;;
80322;SDS011;69636;52.372;13.610;2023-07-28T05:15:35;6.47;;;3.08;;
80322;SDS011;69636;52.372;13.610;2023-07-28T05:18:02;8.68;;;4.28;;
80322;SDS011;69636;52.372;13.610;2023-07-28T05:20:30;11.75;;;4.13;;
80322;SDS011;69636;52.372;13.610;2023-07-28T05:22:57;6.90;;;4.03;;
80322;SDS011;69636;52.372;13.610;2023-07-28T05:25:24;6.70;;;3.45;;
80322;SDS011;69636;52.372;13.610;2023-07-28T05:27:53;6.38;;;2.88;;
80322;SDS011;69636;52.372;13.610;2023-07-28T05:30:20;5.05;;;3.00;;
80322;SDS011;69636;52.372;13.610;2023-07-28T05:32:53;4.65;;;2.60;;
80322;SDS011;69636;52.372;13.610;2023-07-28T05:35:21;7.28;;;3.40;;
80322;SDS011;69636;52.372;13.610;2023-07-28T05:37:48;5.38;;;3.75;;
80322;SDS011;69636;52.372;13.610;2023-07-28T05:40:15;5.68;;;3.55;;
80322;SDS011;69636;52.372;13.610;2023-07-28T05:42:42;5.35;;;3.15;;
80322;SDS011;69636;52.372;13.610;2023-07-28T05:45:11;5.40;;;2.88;;
80322;SDS011;69636;52.372;13.610;2023-07-28T05:47:39;4.63;;;3.78;;
80322;SDS011;69636;52.372;13.610;2023-07-28T05:50:06;6.05;;;3.53;;
80322;SDS011;69636;52.372;13.610;2023-07-28T05:55:01;5.90;;;3.03;;
80322;SDS011;69636;52.372;13.610;2023-07-28T05:57:30;6.47;;;2.97;;
80322;SDS011;69636;52.372;13.610;2023-07-28T05:59:58;6.10;;;4.20;;
80322;SDS011;69636;52.372;13.610;2023-07-28T06:02:26;5.80;;;3.05;;
80322;SDS011;69636;52.372;13.610;2023-07-28T06:04:54;4.32;;;2.40;;
80322;SDS011;69636;52.372;13.610;2023-07-28T06:07:21;6.30;;;3.20;;
80322;SDS011;69636;52.372;13.610;2023-07-28T06:09:48;5.32;;;2.47;;
80322;SDS011;69636;52.372;13.610;2023-07-28T06:12:16;4.88;;;2.78;;
80322;SDS011;69636;52.372;13.610;2023-07-28T06:14:43;5.82;;;2.70;;
80322;SDS011;69636;52.372;13.610;2023-07-28T06:17:10;5.78;;;2.92;;
80322;SDS011;69636;52.372;13.610;2023-07-28T06:19:39;4.75;;;2.63;;
80322;SDS011;69636;52.372;13.610;2023-07-28T06:22:06;6.53;;;4.40;;
80322;SDS011;69636;52.372;13.610;2023-07-28T06:24:33;5.45;;;2.33;;
80322;SDS011;69636;52.372;13.610;2023-07-28T06:27:01;6.13;;;2.88;;
80322;SDS011;69636;52.372;13.610;2023-07-28T06:29:28;5.82;;;4.47;;
80322;SDS011;69636;52.372;13.610;2023-07-28T06:31:55;4.72;;;2.70;;
80322;SDS011;69636;52.372;13.610;2023-07-28T06:34:22;4.47;;;2.90;;
80322;SDS011;69636;52.372;13.610;2023-07-28T06:36:51;5.05;;;3.10;;
80322;SDS011;69636;52.372;13.610;2023-07-28T06:39:18;5.22;;;2.85;;
80322;SDS011;69636;52.372;13.610;2023-07-28T06:41:46;4.82;;;3.17;;
80322;SDS011;69636;52.372;13.610;2023-07-28T06:44:13;4.30;;;2.75;;
80322;SDS011;69636;52.372;13.610;2023-07-28T06:46:40;4.55;;;3.20;;
80322;SDS011;69636;52.372;13.610;2023-07-28T06:49:11;4.35;;;2.97;;
80322;SDS011;69636;52.372;13.610;2023-07-28T06:51:39;4.13;;;2.72;;
80322;SDS011;69636;52.372;13.610;2023-07-28T06:54:07;4.60;;;2.85;;
80322;SDS011;69636;52.372;13.610;2023-07-28T06:56:34;5.68;;;2.85;;
80322;SDS011;69636;52.372;13.610;2023-07-28T06:59:02;5.13;;;2.97;;
80322;SDS011;69636;52.372;13.610;2023-07-28T07:01:41;4.72;;;3.03;;
80322;SDS011;69636;52.372;13.610;2023-07-28T07:04:09;4.80;;;3.03;;
80322;SDS011;69636;52.372;13.610;2023-07-28T07:06:36;4.80;;;2.53;;
80322;SDS011;69636;52.372;13.610;2023-07-28T07:09:03;5.93;;;2.70;;
80322;SDS011;69636;52.372;13.610;2023-07-28T07:11:32;4.40;;;2.67;;
80322;SDS011;69636;52.372;13.610;2023-07-28T07:14:00;4.35;;;3.08;;
80322;SDS011;69636;52.372;13.610;2023-07-28T07:16:27;4.45;;;2.50;;
80322;SDS011;69636;52.372;13.610;2023-07-28T07:18:55;4.22;;;2.60;;
80322;SDS011;69636;52.372;13.610;2023-07-28T07:21:22;3.70;;;2.53;;
80322;SDS011;69636;52.372;13.610;2023-07-28T07:23:49;5.30;;;2.60;;
80322;SDS011;69636;52.372;13.610;2023-07-28T07:26:16;4.75;;;2.60;;
80322;SDS011;69636;52.372;13.610;2023-07-28T07:28:45;4.25;;;2.88;;
80322;SDS011;69636;52.372;13.610;2023-07-28T07:31:12;4.28;;;2.85;;
80322;SDS011;69636;52.372;13.610;2023-07-28T07:33:40;3.80;;;2.60;;
80322;SDS011;69636;52.372;13.610;2023-07-28T07:36:11;4.50;;;2.50;;
80322;SDS011;69636;52.372;13.610;2023-07-28T07:38:38;3.70;;;2.30;;
80322;SDS011;69636;52.372;13.610;2023-07-28T07:41:06;4.10;;;2.40;;
80322;SDS011;69636;52.372;13.610;2023-07-28T07:43:33;3.50;;;2.22;;
80322;SDS011;69636;52.372;13.610;2023-07-28T07:46:02;3.78;;;2.50;;
80322;SDS011;69636;52.372;13.610;2023-07-28T07:48:29;3.20;;;2.22;;
80322;SDS011;69636;52.372;13.610;2023-07-28T07:50:56;3.42;;;2.45;;
80322;SDS011;69636;52.372;13.610;2023-07-28T07:53:24;4.57;;;2.35;;
80322;SDS011;69636;52.372;13.610;2023-07-28T07:55:51;3.83;;;2.63;;
80322;SDS011;69636;52.372;13.610;2023-07-28T07:58:18;3.35;;;1.95;;
80322;SDS011;69636;52.372;13.610;2023-07-28T08:00:46;3.53;;;2.60;;
80322;SDS011;69636;52.372;13.610;2023-07-28T08:03:14;3.80;;;2.58;;
80322;SDS011;69636;52.372;13.610;2023-07-28T08:05:42;3.95;;;2.65;;
80322;SDS011;69636;52.372;13.610;2023-07-28T08:08:09;3.47;;;2.65;;
80322;SDS011;69636;52.372;13.610;2023-07-28T08:10:38;4.63;;;2.90;;
80322;SDS011;69636;52.372;13.610;2023-07-28T08:13:06;3.15;;;2.35;;
80322;SDS011;69636;52.372;13.610;2023-07-28T08:15:33;3.60;;;3.13;;
80322;SDS011;69636;52.372;13.610;2023-07-28T08:18:00;3.20;;;2.70;;
80322;SDS011;69636;52.372;13.610;2023-07-28T08:20:29;3.10;;;2.25;;
80322;SDS011;69636;52.372;13.610;2023-07-28T08:22:56;3.30;;;2.75;;
80322;SDS011;69636;52.372;13.610;2023-07-28T08:25:24;3.05;;;2.47;;
80322;SDS011;69636;52.372;13.610;2023-07-28T08:27:51;5.15;;;3.40;;
80322;SDS011;69636;52.372;13.610;2023-07-28T08:30:19;4.43;;;2.70;;
80322;SDS011;69636;52.372;13.610;2023-07-28T08:32:46;4.82;;;2.47;;
80322;SDS011;69636;52.372;13.610;2023-07-28T08:35:14;3.92;;;3.08;;
80322;SDS011;69636;52.372;13.610;2023-07-28T08:37:42;4.28;;;2.30;;
80322;SDS011;69636;52.372;13.610;2023-07-28T08:40:10;2.90;;;2.28;;
80322;SDS011;69636;52.372;13.610;2023-07-28T08:42:38;2.70;;;1.90;;
80322;SDS011;69636;52.372;13.610;2023-07-28T08:45:07;2.50;;;1.45;;
80322;SDS011;69636;52.372;13.610;2023-07-28T08:47:35;3.08;;;1.95;;
80322;SDS011;69636;52.372;13.610;2023-07-28T08:50:03;2.53;;;1.73;;
80322;SDS011;69636;52.372;13.610;2023-07-28T08:52:31;4.10;;;2.50;;
80322;SDS011;69636;52.372;13.610;2023-07-28T08:55:00;7.85;;;5.13;;
80322;SDS011;69636;52.372;13.610;2023-07-28T08:57:27;2.85;;;2.00;;
80322;SDS011;69636;52.372;13.610;2023-07-28T08:59:55;2.45;;;1.23;;
80322;SDS011;69636;52.372;13.610;2023-07-28T09:02:22;3.42;;;2.35;;
80322;SDS011;69636;52.372;13.610;2023-07-28T09:04:50;2.50;;;1.88;;
80322;SDS011;69636;52.372;13.610;2023-07-28T09:07:17;2.70;;;1.83;;
80322;SDS011;69636;52.372;13.610;2023-07-28T09:09:45;2.53;;;1.58;;
80322;SDS011;69636;52.372;13.610;2023-07-28T09:12:14;2.45;;;1.55;;
80322;SDS011;69636;52.372;13.610;2023-07-28T09:14:42;3.05;;;2.05;;
80322;SDS011;69636;52.372;13.610;2023-07-28T09:17:09;2.45;;;1.88;;
80322;SDS011;69636;52.372;13.610;2023-07-28T09:19:51;3.08;;;1.50;;
80322;SDS011;69636;52.372;13.610;2023-07-28T09:22:19;2.00;;;1.30;;
80322;SDS011;69636;52.372;13.610;2023-07-28T09:24:47;2.25;;;1.20;;
80322;SDS011;69636;52.372;13.610;2023-07-28T09:27:23;2.33;;;1.48;;
80322;SDS011;69636;52.372;13.610;2023-07-28T09:29:52;2.25;;;1.20;;
80322;SDS011;69636;52.372;13.610;2023-07-28T09:32:26;2.83;;;1.92;;
80322;SDS011;69636;52.372;13.610;2023-07-28T09:35:05;2.75;;;1.83;;
80322;SDS011;69636;52.372;13.610;2023-07-28T09:37:36;3.03;;;1.60;;
80322;SDS011;69636;52.372;13.610;2023-07-28T09:40:06;3.42;;;1.80;;
80322;SDS011;69636;52.372;13.610;2023-07-28T09:42:36;2.47;;;1.75;;
80322;SDS011;69636;52.372;13.610;2023-07-28T09:45:04;4.10;;;1.77;;
80322;SDS011;69636;52.372;13.610;2023-07-28T09:47:32;3.45;;;2.15;;
80322;SDS011;69636;52.372;13.610;2023-07-28T09:50:01;3.30;;;2.20;;
80322;SDS011;69636;52.372;13.610;2023-07-28T09:52:31;4.13;;;3.05;;
80322;SDS011;69636;52.372;13.610;2023-07-28T09:55:03;3.90;;;3.60;;
80322;SDS011;69636;52.372;13.610;2023-07-28T09:57:33;4.72;;;2.53;;
80322;SDS011;69636;52.372;13.610;2023-07-28T10:00:07;3.40;;;2.13;;
80322;SDS011;69636;52.372;13.610;2023-07-28T10:02:37;3.10;;;2.30;;
80322;SDS011;69636;52.372;13.610;2023-07-28T10:05:05;3.00;;;2.10;;
80322;SDS011;69636;52.372;13.610;2023-07-28T10:07:34;3.20;;;2.30;;
80322;SDS011;69636;52.372;13.610;2023-07-28T10:10:03;3.50;;;3.00;;
80322;SDS011;69636;52.372;13.610;2023-07-28T10:12:40;4.03;;;3.08;;
80322;SDS011;69636;52.372;13.610;2023-07-28T10:15:12;3.92;;;2.75;;
80322;SDS011;69636;52.372;13.610;2023-07-28T10:17:43;3.13;;;2.22;;
80322;SDS011;69636;52.372;13.610;2023-07-28T10:25:32;3.58;;;2.00;;
80322;SDS011;69636;52.372;13.610;2023-07-28T10:28:01;2.78;;;2.00;;
80322;SDS011;69636;52.372;13.610;2023-07-28T10:30:34;2.90;;;2.15;;
80322;SDS011;69636;52.372;13.610;2023-07-28T10:33:02;3.30;;;2.20;;
80322;SDS011;69636;52.372;13.610;2023-07-28T10:35:30;3.03;;;2.00;;
80322;SDS011;69636;52.372;13.610;2023-07-28T10:37:58;3.60;;;1.80;;
80322;SDS011;69636;52.372;13.610;2023-07-28T10:40:28;4.78;;;1.90;;
80322;SDS011;69636;52.372;13.610;2023-07-28T10:42:56;3.10;;;1.48;;
80322;SDS011;69636;52.372;13.610;2023-07-28T10:45:26;3.33;;;2.50;;
80322;SDS011;69636;52.372;13.610;2023-07-28T10:47:55;2.78;;;1.98;;
80322;SDS011;69636;52.372;13.610;2023-07-28T10:50:24;2.88;;;2.00;;
80322;SDS011;69636;52.372;13.610;2023-07-28T10:52:51;2.88;;;2.05;;
80322;SDS011;69636;52.372;13.610;2023-07-28T10:55:19;2.95;;;2.05;;
80322;SDS011;69636;52.372;13.610;2023-07-28T10:57:48;2.83;;;1.80;;
80322;SDS011;69636;52.372;13.610;2023-07-28T11:00:17;2.72;;;1.50;;
80322;SDS011;69636;52.372;13.610;2023-07-28T11:02:47;2.85;;;2.33;;
80322;SDS011;69636;52.372;13.610;2023-07-28T11:05:18;2.30;;;1.60;;
80322;SDS011;69636;52.372;13.610;2023-07-28T11:07:47;2.97;;;2.10;;
80322;SDS011;69636;52.372;13.610;2023-07-28T11:10:14;3.05;;;2.00;;
80322;SDS011;69636;52.372;13.610;2023-07-28T11:12:42;2.70;;;2.13;;
80322;SDS011;69636;52.372;13.610;2023-07-28T11:15:11;2.88;;;1.85;;
80322;SDS011;69636;52.372;13.610;2023-07-28T11:17:41;2.90;;;2.20;;
80322;SDS011;69636;52.372;13.610;2023-07-28T11:20:16;3.20;;;2.33;;
80322;SDS011;69636;52.372;13.610;2023-07-28T11:22:44;3.40;;;2.30;;
80322;SDS011;69636;52.372;13.610;2023-07-28T11:25:12;2.80;;;1.88;;
80322;SDS011;69636;52.372;13.610;2023-07-28T11:30:07;4.13;;;2.40;;
80322;SDS011;69636;52.372;13.610;2023-07-28T11:32:34;2.90;;;1.80;;
80322;SDS011;69636;52.372;13.610;2023-07-28T11:35:03;2.42;;;1.63;;
80322;SDS011;69636;52.372;13.610;2023-07-28T11:37:33;2.53;;;1.50;;
80322;SDS011;69636;52.372;13.610;2023-07-28T11:40:02;3.72;;;2.05;;
80322;SDS011;69636;52.372;13.610;2023-07-28T11:42:30;2.70;;;1.77;;
80322;SDS011;69636;52.372;13.610;2023-07-28T11:44:58;2.70;;;1.80;;
80322;SDS011;69636;52.372;13.610;2023-07-28T11:47:26;3.75;;;1.60;;
80322;SDS011;69636;52.372;13.610;2023-07-28T11:49:53;2.80;;;1.58;;
80322;SDS011;69636;52.372;13.610;2023-07-28T11:52:20;3.28;;;2.28;;
80322;SDS011;69636;52.372;13.610;2023-07-28T11:54:51;4.00;;;1.42;;
80322;SDS011;69636;52.372;13.610;2023-07-28T11:57:18;2.47;;;1.45;;
80322;SDS011;69636;52.372;13.610;2023-07-28T11:59:46;2.85;;;1.63;;
80322;SDS011;69636;52.372;13.610;2023-07-28T12:02:13;2.80;;;1.30;;
80322;SDS011;69636;52.372;13.610;2023-07-28T12:04:43;2.20;;;1.13;;
80322;SDS011;69636;52.372;13.610;2023-07-28T12:07:14;2.22;;;1.23;;
80322;SDS011;69636;52.372;13.610;2023-07-28T12:09:51;2.20;;;1.42;;
80322;SDS011;69636;52.372;13.610;2023-07-28T12:12:30;1.98;;;0.80;;
80322;SDS011;69636;52.372;13.610;2023-07-28T12:15:21;2.25;;;1.00;;
80322;SDS011;69636;52.372;13.610;2023-07-28T12:18:06;1.98;;;1.13;;
80322;SDS011;69636;52.372;13.610;2023-07-28T12:20:39;1.92;;;1.30;;
80322;SDS011;69636;52.372;13.610;2023-07-28T12:23:07;2.40;;;0.70;;
80322;SDS011;69636;52.372;13.610;2023-07-28T12:25:39;1.90;;;0.70;;
80322;SDS011;69636;52.372;13.610;2023-07-28T12:28:07;2.97;;;1.50;;
80322;SDS011;69636;52.372;13.610;2023-07-28T12:30:45;2.53;;;1.33;;
80322;SDS011;69636;52.372;13.610;2023-07-28T12:33:13;2.30;;;1.10;;
80322;SDS011;69636;52.372;13.610;2023-07-28T12:35:43;2.13;;;1.20;;
80322;SDS011;69636;52.372;13.610;2023-07-28T12:38:14;2.22;;;1.30;;
80322;SDS011;69636;52.372;13.610;2023-07-28T12:40:45;2.70;;;1.45;;
80322;SDS011;69636;52.372;13.610;2023-07-28T12:43:15;2.88;;;1.85;;
80322;SDS011;69636;52.372;13.610;2023-07-28T12:45:46;3.10;;;1.65;;
80322;SDS011;69636;52.372;13.610;2023-07-28T12:48:16;3.42;;;2.00;;
80322;SDS011;69636;52.372;13.610;2023-07-28T12:50:47;2.88;;;1.60;;
80322;SDS011;69636;52.372;13.610;2023-07-28T12:53:15;2.38;;;1.38;;
80322;SDS011;69636;52.372;13.610;2023-07-28T12:55:50;3.40;;;1.52;;
80322;SDS011;69636;52.372;13.610;2023-07-28T12:58:20;2.97;;;1.42;;
80322;SDS011;69636;52.372;13.610;2023-07-28T13:00:51;3.05;;;1.60;;
80322;SDS011;69636;52.372;13.610;2023-07-28T13:03:21;3.65;;;1.70;;
80322;SDS011;69636;52.372;13.610;2023-07-28T13:08:15;3.10;;;1.77;;
80322;SDS011;69636;52.372;13.610;2023-07-28T13:13:14;3.17;;;1.90;;
80322;SDS011;69636;52.372;13.610;2023-07-28T13:15:42;4.07;;;2.20;;
80322;SDS011;69636;52.372;13.610;2023-07-28T13:18:09;3.50;;;2.03;;
80322;SDS011;69636;52.372;13.610;2023-07-28T13:20:36;3.50;;;2.03;;
80322;SDS011;69636;52.372;13.610;2023-07-28T13:23:04;4.38;;;2.65;;
80322;SDS011;69636;52.372;13.610;2023-07-28T13:25:31;3.22;;;1.98;;
80322;SDS011;69636;52.372;13.610;2023-07-28T13:27:58;3.67;;;2.10;;
80322;SDS011;69636;52.372;13.610;2023-07-28T13:30:27;3.83;;;2.58;;
80322;SDS011;69636;52.372;13.610;2023-07-28T13:32:56;3.42;;;2.55;;
80322;SDS011;69636;52.372;13.610;2023-07-28T13:35:23;4.22;;;3.30;;
80322;SDS011;69636;52.372;13.610;2023-07-28T13:40:18;3.33;;;2.00;;
80322;SDS011;69636;52.372;13.610;2023-07-28T13:42:46;4.30;;;3.15;;
80322;SDS011;69636;52.372;13.610;2023-07-28T13:45:14;4.40;;;2.65;;
80322;SDS011;69636;52.372;13.610;2023-07-28T13:47:42;3.47;;;2.15;;
80322;SDS011;69636;52.372;13.610;2023-07-28T13:50:10;3.30;;;2.05;;
80322;SDS011;69636;52.372;13.610;2023-07-28T13:52:37;3.60;;;2.40;;
80322;SDS011;69636;52.372;13.610;2023-07-28T13:55:05;3.10;;;1.98;;
80322;SDS011;69636;52.372;13.610;2023-07-28T13:57:35;3.50;;;2.22;;
80322;SDS011;69636;52.372;13.610;2023-07-28T14:00:03;3.13;;;1.73;;
80322;SDS011;69636;52.372;13.610;2023-07-28T14:02:31;3.45;;;2.03;;
80322;SDS011;69636;52.372;13.610;2023-07-28T14:07:26;3.47;;;2.60;;
80322;SDS011;69636;52.372;13.610;2023-07-28T14:09:54;3.33;;;1.75;;
80322;SDS011;69636;52.372;13.610;2023-07-28T14:12:21;4.00;;;2.10;;
80322;SDS011;69636;52.372;13.610;2023-07-28T14:14:49;3.65;;;2.17;;
80322;SDS011;69636;52.372;13.610;2023-07-28T14:17:16;3.15;;;2.20;;
80322;SDS011;69636;52.372;13.610;2023-07-28T14:19:43;3.70;;;2.40;;
80322;SDS011;69636;52.372;13.610;2023-07-28T14:22:12;3.33;;;1.92;;
80322;SDS011;69636;52.372;13.610;2023-07-28T14:24:39;3.33;;;1.30;;
80322;SDS011;69636;52.372;13.610;2023-07-28T14:27:07;3.10;;;1.75;;
80322;SDS011;69636;52.372;13.610;2023-07-28T14:29:34;2.92;;;1.98;;
80322;SDS011;69636;52.372;13.610;2023-07-28T14:32:01;3.00;;;1.83;;
80322;SDS011;69636;52.372;13.610;2023-07-28T14:34:28;3.17;;;1.70;;
80322;SDS011;69636;52.372;13.610;2023-07-28T14:36:56;2.88;;;1.67;;
80322;SDS011;69636;52.372;13.610;2023-07-28T14:39:25;2.70;;;1.60;;
80322;SDS011;69636;52.372;13.610;2023-07-28T14:41:52;2.85;;;1.60;;
80322;SDS011;69636;52.372;13.610;2023-07-28T14:44:19;2.50;;;1.45;;
80322;SDS011;69636;52.372;13.610;2023-07-28T14:46:46;2.47;;;1.40;;
80322;SDS011;69636;52.372;13.610;2023-07-28T14:49:14;2.25;;;1.20;;
80322;SDS011;69636;52.372;13.610;2023-07-28T14:51:41;2.60;;;1.50;;
80322;SDS011;69636;52.372;13.610;2023-07-28T14:54:08;2.78;;;1.30;;
80322;SDS011;69636;52.372;13.610;2023-07-28T14:56:37;3.13;;;1.90;;
80322;SDS011;69636;52.372;13.610;2023-07-28T14:59:04;2.60;;;1.48;;
80322;SDS011;69636;52.372;13.610;2023-07-28T15:01:32;3.05;;;1.50;;